sensor_id;sensor_type;location;lat;lon;timestamp;pressure;altitude;pressure_sealevel;temperature
13497;BMP180;6820;49.374;8.452;2022-12-18T00:03:27;102001.25;;;2.83
13497;BMP180;6820;49.374;8.452;2022-12-18T00:07:29;101985.00;;;2.80
13497;BMP180;6820;49.374;8.452;2022-12-18T00:11:31;101985.34;;;2.83
13497;BMP180;6820;49.374;8.452;2022-12-18T00:15:34;101990.72;;;2.79
13497;BMP180;6820;49.374;8.452;2022-12-18T00:19:36;101991.59;;;2.86
13497;BMP180;6820;49.374;8.452;2022-12-18T00:23:39;101993.53;;;2.96
13497;BMP180;6820;49.374;8.452;2022-12-18T00:27:41;101986.19;;;2.97
13497;BMP180;6820;49.374;8.452;2022-12-18T00:31:43;101984.25;;;2.95
13497;BMP180;6820;49.374;8.452;2022-12-18T00:35:45;101991.75;;;2.95
13497;BMP180;6820;49.374;8.452;2022-12-18T00:39:47;101988.16;;;2.93
13497;BMP180;6820;49.374;8.452;2022-12-18T00:43:49;101985.34;;;2.83
13497;BMP180;6820;49.374;8.452;2022-12-18T00:47:51;102001.81;;;2.81
13497;BMP180;6820;49.374;8.452;2022-12-18T00:51:55;102000.56;;;2.77
13497;BMP180;6820;49.374;8.452;2022-12-18T00:55:57;101998.06;;;2.77
13497;BMP180;6820;49.374;8.452;2022-12-18T00:59:58;102001.44;;;2.78
13497;BMP180;6820;49.374;8.452;2022-12-18T01:04:02;102007.16;;;2.77
13497;BMP180;6820;49.374;8.452;2022-12-18T01:08:04;102005.75;;;2.72
13497;BMP180;6820;49.374;8.452;2022-12-18T01:12:05;102004.84;;;2.72
13497;BMP180;6820;49.374;8.452;2022-12-18T01:16:08;101999.84;;;2.78
13497;BMP180;6820;49.374;8.452;2022-12-18T01:20:11;101995.38;;;2.76
13497;BMP180;6820;49.374;8.452;2022-12-18T01:24:13;102000.72;;;2.79
13497;BMP180;6820;49.374;8.452;2022-12-18T01:28:15;101989.63;;;2.77
13497;BMP180;6820;49.374;8.452;2022-12-18T01:32:17;102012.72;;;2.68
13497;BMP180;6820;49.374;8.452;2022-12-18T01:36:24;102001.44;;;2.71
13497;BMP180;6820;49.374;8.452;2022-12-18T01:40:26;101984.31;;;2.60
13497;BMP180;6820;49.374;8.452;2022-12-18T01:49:06;102002.16;;;2.63
13497;BMP180;6820;49.374;8.452;2022-12-18T01:53:15;102014.69;;;2.70
13497;BMP180;6820;49.374;8.452;2022-12-18T01:57:18;102014.69;;;2.70
13497;BMP180;6820;49.374;8.452;2022-12-18T02:01:22;102004.50;;;2.62
13497;BMP180;6820;49.374;8.452;2022-12-18T02:05:45;101986.44;;;2.50
13497;BMP180;6820;49.374;8.452;2022-12-18T02:09:51;101983.63;;;2.41
13497;BMP180;6820;49.374;8.452;2022-12-18T02:14:23;102005.41;;;2.42
13497;BMP180;6820;49.374;8.452;2022-12-18T02:18:36;102020.78;;;2.38
13497;BMP180;6820;49.374;8.452;2022-12-18T02:26:54;102022.38;;;2.44
13497;BMP180;6820;49.374;8.452;2022-12-18T02:31:01;102021.88;;;2.53
13497;BMP180;6820;49.374;8.452;2022-12-18T02:35:05;102017.00;;;2.55
13497;BMP180;6820;49.374;8.452;2022-12-18T02:39:11;102000.03;;;2.52
13497;BMP180;6820;49.374;8.452;2022-12-18T02:43:19;102003.97;;;2.43
13497;BMP180;6820;49.374;8.452;2022-12-18T02:47:29;101997.91;;;2.35
13497;BMP180;6820;49.374;8.452;2022-12-18T03:00:08;101989.31;;;2.40
13497;BMP180;6820;49.374;8.452;2022-12-18T03:09:08;102006.09;;;2.47
13497;BMP180;6820;49.374;8.452;2022-12-18T03:13:27;101999.88;;;2.51
13497;BMP180;6820;49.374;8.452;2022-12-18T03:17:32;101978.25;;;2.51
13497;BMP180;6820;49.374;8.452;2022-12-18T03:21:47;101975.59;;;2.43
13497;BMP180;6820;49.374;8.452;2022-12-18T03:25:52;101994.31;;;2.40
13497;BMP180;6820;49.374;8.452;2022-12-18T03:30:10;102010.75;;;2.24
13497;BMP180;6820;49.374;8.452;2022-12-18T03:34:19;102004.84;;;2.10
13497;BMP180;6820;49.374;8.452;2022-12-18T03:38:23;102005.22;;;2.12
13497;BMP180;6820;49.374;8.452;2022-12-18T03:42:32;101986.09;;;2.20
13497;BMP180;6820;49.374;8.452;2022-12-18T03:51:14;101996.66;;;2.31
13497;BMP180;6820;49.374;8.452;2022-12-18T03:55:19;101996.84;;;2.33
13497;BMP180;6820;49.374;8.452;2022-12-18T03:59:29;101997.91;;;2.42
13497;BMP180;6820;49.374;8.452;2022-12-18T04:03:32;101996.84;;;2.46
13497;BMP180;6820;49.374;8.452;2022-12-18T04:07:38;102014.34;;;2.46
13497;BMP180;6820;49.374;8.452;2022-12-18T04:11:43;101999.88;;;2.44
13497;BMP180;6820;49.374;8.452;2022-12-18T04:15:47;101995.41;;;2.48
13497;BMP180;6820;49.374;8.452;2022-12-18T04:19:51;101982.34;;;2.44
13497;BMP180;6820;49.374;8.452;2022-12-18T04:23:52;101983.78;;;2.42
13497;BMP180;6820;49.374;8.452;2022-12-18T04:27:56;101988.59;;;2.34
13497;BMP180;6820;49.374;8.452;2022-12-18T04:31:58;101973.59;;;2.13
13497;BMP180;6820;49.374;8.452;2022-12-18T04:36:01;101979.50;;;2.13
13497;BMP180;6820;49.374;8.452;2022-12-18T04:40:04;101994.00;;;2.16
13497;BMP180;6820;49.374;8.452;2022-12-18T04:44:13;101986.47;;;2.16
13497;BMP180;6820;49.374;8.452;2022-12-18T04:48:15;101981.47;;;2.23
13497;BMP180;6820;49.374;8.452;2022-12-18T04:52:16;101993.63;;;2.20
13497;BMP180;6820;49.374;8.452;2022-12-18T04:56:18;101988.97;;;2.16
13497;BMP180;6820;49.374;8.452;2022-12-18T05:00:20;101989.69;;;2.08
13497;BMP180;6820;49.374;8.452;2022-12-18T05:04:22;102000.75;;;2.10
13497;BMP180;6820;49.374;8.452;2022-12-18T05:08:24;102014.63;;;1.94
13497;BMP180;6820;49.374;8.452;2022-12-18T05:12:25;102010.38;;;1.93
13497;BMP180;6820;49.374;8.452;2022-12-18T05:16:27;102014.28;;;1.91
13497;BMP180;6820;49.374;8.452;2022-12-18T05:20:29;102018.59;;;1.92
13497;BMP180;6820;49.374;8.452;2022-12-18T05:24:30;102019.63;;;1.94
13497;BMP180;6820;49.374;8.452;2022-12-18T05:28:34;102016.44;;;1.82
13497;BMP180;6820;49.374;8.452;2022-12-18T05:32:36;102007.84;;;1.80
13497;BMP180;6820;49.374;8.452;2022-12-18T05:36:37;102005.91;;;1.84
13497;BMP180;6820;49.374;8.452;2022-12-18T05:40:42;101994.44;;;1.86
13497;BMP180;6820;49.374;8.452;2022-12-18T05:44:44;101990.16;;;1.92
13497;BMP180;6820;49.374;8.452;2022-12-18T05:48:46;102009.28;;;1.91
13497;BMP180;6820;49.374;8.452;2022-12-18T05:52:48;102003.56;;;1.85
13497;BMP180;6820;49.374;8.452;2022-12-18T05:56:49;101993.75;;;1.80
13497;BMP180;6820;49.374;8.452;2022-12-18T06:00:51;101994.44;;;1.72
13497;BMP180;6820;49.374;8.452;2022-12-18T06:04:53;102006.38;;;1.68
13497;BMP180;6820;49.374;8.452;2022-12-18T06:08:55;102015.09;;;1.64
13497;BMP180;6820;49.374;8.452;2022-12-18T06:12:59;102022.19;;;1.54
13497;BMP180;6820;49.374;8.452;2022-12-18T06:17:01;102023.44;;;1.51
13497;BMP180;6820;49.374;8.452;2022-12-18T06:21:02;102027.72;;;1.45
13497;BMP180;6820;49.374;8.452;2022-12-18T06:25:04;102033.38;;;1.37
13497;BMP180;6820;49.374;8.452;2022-12-18T06:29:08;102037.28;;;1.28
13497;BMP180;6820;49.374;8.452;2022-12-18T06:33:09;102034.00;;;1.22
13497;BMP180;6820;49.374;8.452;2022-12-18T06:37:11;102027.44;;;1.23
13497;BMP180;6820;49.374;8.452;2022-12-18T06:41:16;102016.53;;;1.22
13497;BMP180;6820;49.374;8.452;2022-12-18T06:45:18;102035.44;;;1.21
13497;BMP180;6820;49.374;8.452;2022-12-18T06:49:19;102039.72;;;1.21
13497;BMP180;6820;49.374;8.452;2022-12-18T06:53:21;102037.94;;;1.21
13497;BMP180;6820;49.374;8.452;2022-12-18T06:57:23;102049.84;;;1.16
13497;BMP180;6820;49.374;8.452;2022-12-18T07:01:24;102052.56;;;1.18
13497;BMP180;6820;49.374;8.452;2022-12-18T07:05:26;102049.72;;;1.21
13497;BMP180;6820;49.374;8.452;2022-12-18T07:09:27;102058.09;;;1.22
13497;BMP180;6820;49.374;8.452;2022-12-18T07:13:30;102058.59;;;1.20
13497;BMP180;6820;49.374;8.452;2022-12-18T07:17:31;102072.69;;;1.19
13497;BMP180;6820;49.374;8.452;2022-12-18T07:21:33;102078.94;;;1.16
13497;BMP180;6820;49.374;8.452;2022-12-18T07:25:35;102075.34;;;1.14
13497;BMP180;6820;49.374;8.452;2022-12-18T07:29:37;102070.56;;;1.15
13497;BMP180;6820;49.374;8.452;2022-12-18T07:33:39;102080.53;;;1.15
13497;BMP180;6820;49.374;8.452;2022-12-18T07:37:42;102083.22;;;1.17
13497;BMP180;6820;49.374;8.452;2022-12-18T07:41:43;102078.22;;;1.17
13497;BMP180;6820;49.374;8.452;2022-12-18T07:46:08;102081.44;;;1.16
13497;BMP180;6820;49.374;8.452;2022-12-18T07:50:10;102080.53;;;1.15
13497;BMP180;6820;49.374;8.452;2022-12-18T07:54:12;102078.94;;;1.16
13497;BMP180;6820;49.374;8.452;2022-12-18T07:58:13;102092.88;;;1.21
13497;BMP180;6820;49.374;8.452;2022-12-18T08:02:15;102094.50;;;1.27
13497;BMP180;6820;49.374;8.452;2022-12-18T08:06:17;102100.38;;;1.27
13497;BMP180;6820;49.374;8.452;2022-12-18T08:10:19;102093.63;;;1.26
13497;BMP180;6820;49.374;8.452;2022-12-18T08:14:21;102102.06;;;1.34
13497;BMP180;6820;49.374;8.452;2022-12-18T08:18:23;102097.06;;;1.41
13497;BMP180;6820;49.374;8.452;2022-12-18T08:22:24;102104.41;;;1.46
13497;BMP180;6820;49.374;8.452;2022-12-18T08:26:28;102117.63;;;1.45
13497;BMP180;6820;49.374;8.452;2022-12-18T08:30:30;102109.78;;;1.42
13497;BMP180;6820;49.374;8.452;2022-12-18T08:34:32;102097.13;;;1.48
13497;BMP180;6820;49.374;8.452;2022-12-18T08:38:34;102074.88;;;1.56
13497;BMP180;6820;49.374;8.452;2022-12-18T08:42:35;102081.47;;;1.62
13497;BMP180;6820;49.374;8.452;2022-12-18T08:46:55;102077.03;;;1.67
13497;BMP180;6820;49.374;8.452;2022-12-18T08:50:58;102080.28;;;1.73
13497;BMP180;6820;49.374;8.452;2022-12-18T08:55:00;102062.63;;;1.78
13497;BMP180;6820;49.374;8.452;2022-12-18T08:59:02;102050.88;;;1.84
13497;BMP180;6820;49.374;8.452;2022-12-18T09:03:03;102043.91;;;1.88
13497;BMP180;6820;49.374;8.452;2022-12-18T09:07:05;102040.03;;;1.97
13497;BMP180;6820;49.374;8.452;2022-12-18T09:11:27;102047.34;;;2.10
13497;BMP180;6820;49.374;8.452;2022-12-18T09:15:30;102046.13;;;2.20
13497;BMP180;6820;49.374;8.452;2022-12-18T09:19:31;102046.84;;;2.26
13497;BMP180;6820;49.374;8.452;2022-12-18T09:23:33;102044.91;;;2.30
13497;BMP180;6820;49.374;8.452;2022-12-18T09:27:35;102035.59;;;2.36
13497;BMP180;6820;49.374;8.452;2022-12-18T09:31:38;102046.84;;;2.40
13497;BMP180;6820;49.374;8.452;2022-12-18T09:35:41;102049.00;;;2.43
13497;BMP180;6820;49.374;8.452;2022-12-18T09:39:42;102060.25;;;2.47
13497;BMP180;6820;49.374;8.452;2022-12-18T09:43:50;102076.91;;;2.53
13497;BMP180;6820;49.374;8.452;2022-12-18T09:47:53;102080.81;;;2.58
13497;BMP180;6820;49.374;8.452;2022-12-18T09:52:13;102087.81;;;2.68
13497;BMP180;6820;49.374;8.452;2022-12-18T09:56:19;102087.44;;;2.78
13497;BMP180;6820;49.374;8.452;2022-12-18T10:00:25;102096.22;;;2.89
13497;BMP180;6820;49.374;8.452;2022-12-18T10:04:29;102080.31;;;2.88
13497;BMP180;6820;49.374;8.452;2022-12-18T10:08:56;102078.69;;;2.89
13497;BMP180;6820;49.374;8.452;2022-12-18T10:17:32;102061.13;;;3.03
13497;BMP180;6820;49.374;8.452;2022-12-18T10:26:10;102087.97;;;3.17
13497;BMP180;6820;49.374;8.452;2022-12-18T10:30:17;102073.78;;;3.25
13497;BMP180;6820;49.374;8.452;2022-12-18T10:34:18;102069.28;;;3.36
13497;BMP180;6820;49.374;8.452;2022-12-18T10:38:22;102054.97;;;3.42
13497;BMP180;6820;49.374;8.452;2022-12-18T10:42:23;102033.09;;;3.48
13497;BMP180;6820;49.374;8.452;2022-12-18T10:46:25;102039.50;;;3.53
13497;BMP180;6820;49.374;8.452;2022-12-18T10:50:33;102037.34;;;3.63
13497;BMP180;6820;49.374;8.452;2022-12-18T10:54:59;102034.56;;;3.75
13497;BMP180;6820;49.374;8.452;2022-12-18T10:59:08;102052.31;;;3.76
13497;BMP180;6820;49.374;8.452;2022-12-18T11:03:58;102040.25;;;3.81
13497;BMP180;6820;49.374;8.452;2022-12-18T11:08:02;102057.94;;;3.89
13497;BMP180;6820;49.374;8.452;2022-12-18T11:12:19;102064.00;;;3.98
13497;BMP180;6820;49.374;8.452;2022-12-18T11:16:21;102049.31;;;4.01
13497;BMP180;6820;49.374;8.452;2022-12-18T11:20:32;102045.50;;;4.04
13497;BMP180;6820;49.374;8.452;2022-12-18T11:24:36;102034.22;;;4.08
13497;BMP180;6820;49.374;8.452;2022-12-18T11:28:49;102034.50;;;4.18
13497;BMP180;6820;49.374;8.452;2022-12-18T11:33:09;102045.56;;;4.26
13497;BMP180;6820;49.374;8.452;2022-12-18T11:37:13;102037.81;;;4.32
13497;BMP180;6820;49.374;8.452;2022-12-18T11:41:37;102041.47;;;4.42
13497;BMP180;6820;49.374;8.452;2022-12-18T11:46:07;102031.06;;;4.46
13497;BMP180;6820;49.374;8.452;2022-12-18T11:50:19;102010.75;;;4.52
13497;BMP180;6820;49.374;8.452;2022-12-18T11:54:23;102024.69;;;4.56
13497;BMP180;6820;49.374;8.452;2022-12-18T12:11:30;102006.03;;;4.77
13497;BMP180;6820;49.374;8.452;2022-12-18T12:16:04;101991.63;;;4.83
13497;BMP180;6820;49.374;8.452;2022-12-18T12:24:42;101982.88;;;4.94
13497;BMP180;6820;49.374;8.452;2022-12-18T12:41:54;101975.69;;;5.13
13497;BMP180;6820;49.374;8.452;2022-12-18T12:46:17;101982.25;;;5.19
13497;BMP180;6820;49.374;8.452;2022-12-18T12:50:23;101979.22;;;5.30
13497;BMP180;6820;49.374;8.452;2022-12-18T12:54:25;101971.06;;;5.39
13497;BMP180;6820;49.374;8.452;2022-12-18T13:02:52;101957.81;;;5.48
13497;BMP180;6820;49.374;8.452;2022-12-18T13:07:15;101936.06;;;5.49
13497;BMP180;6820;49.374;8.452;2022-12-18T13:11:41;101928.13;;;5.53
13497;BMP180;6820;49.374;8.452;2022-12-18T13:16:05;101928.88;;;5.52
13497;BMP180;6820;49.374;8.452;2022-12-18T13:20:12;101933.16;;;5.53
13497;BMP180;6820;49.374;8.452;2022-12-18T13:24:36;101927.56;;;5.55
13497;BMP180;6820;49.374;8.452;2022-12-18T13:41:33;101908.25;;;5.47
13497;BMP180;6820;49.374;8.452;2022-12-18T13:45:41;101907.53;;;5.48
13497;BMP180;6820;49.374;8.452;2022-12-18T13:49:46;101905.69;;;5.39
13497;BMP180;6820;49.374;8.452;2022-12-18T13:58:03;101909.16;;;5.33
13497;BMP180;6820;49.374;8.452;2022-12-18T14:02:13;101917.03;;;5.36
13497;BMP180;6820;49.374;8.452;2022-12-18T14:06:16;101911.44;;;5.38
13497;BMP180;6820;49.374;8.452;2022-12-18T14:10:19;101920.78;;;5.39
13497;BMP180;6820;49.374;8.452;2022-12-18T14:14:44;101908.47;;;5.34
13497;BMP180;6820;49.374;8.452;2022-12-18T14:18:56;101899.13;;;5.33
13497;BMP180;6820;49.374;8.452;2022-12-18T14:27:29;101902.94;;;5.29
13497;BMP180;6820;49.374;8.452;2022-12-18T14:31:31;101906.22;;;5.28
13497;BMP180;6820;49.374;8.452;2022-12-18T14:35:35;101910.34;;;5.28
13497;BMP180;6820;49.374;8.452;2022-12-18T14:39:37;101915.78;;;5.24
13497;BMP180;6820;49.374;8.452;2022-12-18T14:43:41;101909.69;;;5.22
13497;BMP180;6820;49.374;8.452;2022-12-18T14:47:44;101921.28;;;5.13
13497;BMP180;6820;49.374;8.452;2022-12-18T14:51:51;101920.66;;;5.07
13497;BMP180;6820;49.374;8.452;2022-12-18T14:55:54;101901.53;;;5.01
13497;BMP180;6820;49.374;8.452;2022-12-18T15:00:11;101898.38;;;4.95
13497;BMP180;6820;49.374;8.452;2022-12-18T15:04:36;101897.56;;;4.87
13497;BMP180;6820;49.374;8.452;2022-12-18T15:08:42;101894.41;;;4.82
13497;BMP180;6820;49.374;8.452;2022-12-18T15:16:59;101890.94;;;4.73
13497;BMP180;6820;49.374;8.452;2022-12-18T15:21:11;101884.84;;;4.71
13497;BMP180;6820;49.374;8.452;2022-12-18T15:29:28;101882.75;;;4.67
13497;BMP180;6820;49.374;8.452;2022-12-18T15:33:36;101895.31;;;4.67
13497;BMP180;6820;49.374;8.452;2022-12-18T15:37:39;101893.50;;;4.66
13497;BMP180;6820;49.374;8.452;2022-12-18T15:41:42;101887.59;;;4.65
13497;BMP180;6820;49.374;8.452;2022-12-18T15:46:06;101885.41;;;4.68
13497;BMP180;6820;49.374;8.452;2022-12-18T15:50:08;101884.69;;;4.69
13497;BMP180;6820;49.374;8.452;2022-12-18T15:54:12;101891.66;;;4.72
13497;BMP180;6820;49.374;8.452;2022-12-18T15:58:14;101894.09;;;4.79
13497;BMP180;6820;49.374;8.452;2022-12-18T16:02:18;101883.03;;;4.85
13497;BMP180;6820;49.374;8.452;2022-12-18T16:06:21;101892.88;;;4.90
13497;BMP180;6820;49.374;8.452;2022-12-18T16:10:23;101879.91;;;4.94
13497;BMP180;6820;49.374;8.452;2022-12-18T16:14:27;101874.13;;;4.95
13497;BMP180;6820;49.374;8.452;2022-12-18T16:18:29;101867.53;;;4.96
13497;BMP180;6820;49.374;8.452;2022-12-18T16:22:31;101874.13;;;4.95
13497;BMP180;6820;49.374;8.452;2022-12-18T16:26:33;101869.44;;;4.98
13497;BMP180;6820;49.374;8.452;2022-12-18T16:30:34;101873.00;;;5.00
13497;BMP180;6820;49.374;8.452;2022-12-18T16:34:39;101866.84;;;5.05
13497;BMP180;6820;49.374;8.452;2022-12-18T16:38:40;101865.13;;;5.13
13497;BMP180;6820;49.374;8.452;2022-12-18T16:42:44;101855.41;;;5.15
13497;BMP180;6820;49.374;8.452;2022-12-18T16:46:46;101844.47;;;5.15
13497;BMP180;6820;49.374;8.452;2022-12-18T16:50:48;101845.16;;;5.14
13497;BMP180;6820;49.374;8.452;2022-12-18T16:54:50;101842.84;;;5.15
13497;BMP180;6820;49.374;8.452;2022-12-18T16:58:57;101845.84;;;5.20
13497;BMP180;6820;49.374;8.452;2022-12-18T17:02:59;101846.47;;;5.26
13497;BMP180;6820;49.374;8.452;2022-12-18T17:07:01;101844.50;;;5.23
13497;BMP180;6820;49.374;8.452;2022-12-18T17:11:06;101847.59;;;5.21
13497;BMP180;6820;49.374;8.452;2022-12-18T17:15:09;101836.81;;;5.22
13497;BMP180;6820;49.374;8.452;2022-12-18T17:19:11;101831.78;;;5.22
13497;BMP180;6820;49.374;8.452;2022-12-18T17:23:17;101833.28;;;5.20
13497;BMP180;6820;49.374;8.452;2022-12-18T17:27:19;101838.69;;;5.16
13497;BMP180;6820;49.374;8.452;2022-12-18T17:31:22;101840.16;;;5.14
13497;BMP180;6820;49.374;8.452;2022-12-18T17:35:24;101832.34;;;5.19
13497;BMP180;6820;49.374;8.452;2022-12-18T17:39:25;101835.91;;;5.21
13497;BMP180;6820;49.374;8.452;2022-12-18T17:43:29;101837.72;;;5.22
13497;BMP180;6820;49.374;8.452;2022-12-18T17:47:30;101829.31;;;5.30
13497;BMP180;6820;49.374;8.452;2022-12-18T17:51:32;101813.53;;;5.31
13497;BMP180;6820;49.374;8.452;2022-12-18T17:55:34;101813.84;;;5.34
13497;BMP180;6820;49.374;8.452;2022-12-18T17:59:35;101817.09;;;5.33
13497;BMP180;6820;49.374;8.452;2022-12-18T18:03:37;101825.84;;;5.37
13497;BMP180;6820;49.374;8.452;2022-12-18T18:07:39;101820.38;;;5.41
13497;BMP180;6820;49.374;8.452;2022-12-18T18:11:41;101805.16;;;5.39
13497;BMP180;6820;49.374;8.452;2022-12-18T18:16:02;101804.84;;;5.36
13497;BMP180;6820;49.374;8.452;2022-12-18T18:20:04;101818.88;;;5.34
13497;BMP180;6820;49.374;8.452;2022-12-18T18:24:07;101822.88;;;5.41
13497;BMP180;6820;49.374;8.452;2022-12-18T18:28:10;101818.28;;;5.37
13497;BMP180;6820;49.374;8.452;2022-12-18T18:32:11;101817.22;;;5.35
13497;BMP180;6820;49.374;8.452;2022-12-18T18:36:13;101818.56;;;5.31
13497;BMP180;6820;49.374;8.452;2022-12-18T18:40:15;101819.44;;;5.32
13497;BMP180;6820;49.374;8.452;2022-12-18T18:44:18;101820.94;;;5.38
13497;BMP180;6820;49.374;8.452;2022-12-18T18:48:23;101813.41;;;5.38
13497;BMP180;6820;49.374;8.452;2022-12-18T18:52:29;101801.75;;;5.39
13497;BMP180;6820;49.374;8.452;2022-12-18T18:56:31;101796.38;;;5.36
13497;BMP180;6820;49.374;8.452;2022-12-18T19:01:01;101794.78;;;5.36
13497;BMP180;6820;49.374;8.452;2022-12-18T19:05:04;101791.97;;;5.33
13497;BMP180;6820;49.374;8.452;2022-12-18T19:09:05;101790.78;;;5.38
13497;BMP180;6820;49.374;8.452;2022-12-18T19:13:11;101782.03;;;5.35
13497;BMP180;6820;49.374;8.452;2022-12-18T19:17:21;101784.16;;;5.39
13497;BMP180;6820;49.374;8.452;2022-12-18T19:21:31;101780.16;;;5.41
13497;BMP180;6820;49.374;8.452;2022-12-18T19:25:38;101780.47;;;5.44
13497;BMP180;6820;49.374;8.452;2022-12-18T19:29:42;101766.16;;;5.51
13497;BMP180;6820;49.374;8.452;2022-12-18T19:33:46;101766.94;;;5.58
13497;BMP180;6820;49.374;8.452;2022-12-18T19:37:47;101768.69;;;5.59
13497;BMP180;6820;49.374;8.452;2022-12-18T19:41:49;101774.69;;;5.68
13497;BMP180;6820;49.374;8.452;2022-12-18T19:45:54;101779.31;;;5.72
13497;BMP180;6820;49.374;8.452;2022-12-18T19:49:55;101766.16;;;5.75
13497;BMP180;6820;49.374;8.452;2022-12-18T19:53:58;101745.28;;;5.76
13497;BMP180;6820;49.374;8.452;2022-12-18T19:58:02;101755.19;;;5.74
13497;BMP180;6820;49.374;8.452;2022-12-18T20:02:03;101751.06;;;5.75
13497;BMP180;6820;49.374;8.452;2022-12-18T20:06:25;101743.38;;;5.73
13497;BMP180;6820;49.374;8.452;2022-12-18T20:10:27;101738.44;;;5.66
13497;BMP180;6820;49.374;8.452;2022-12-18T20:14:29;101748.88;;;5.62
13497;BMP180;6820;49.374;8.452;2022-12-18T20:18:31;101746.84;;;5.67
13497;BMP180;6820;49.374;8.452;2022-12-18T20:22:33;101759.72;;;5.70
13497;BMP180;6820;49.374;8.452;2022-12-18T20:26:35;101760.22;;;5.74
13497;BMP180;6820;49.374;8.452;2022-12-18T20:30:37;101738.94;;;5.79
13497;BMP180;6820;49.374;8.452;2022-12-18T20:34:38;101742.19;;;5.78
13497;BMP180;6820;49.374;8.452;2022-12-18T20:38:42;101740.25;;;5.76
13497;BMP180;6820;49.374;8.452;2022-12-18T20:42:44;101750.19;;;5.74
13497;BMP180;6820;49.374;8.452;2022-12-18T20:46:46;101732.94;;;5.70
13497;BMP180;6820;49.374;8.452;2022-12-18T20:50:59;101749.13;;;5.72
13497;BMP180;6820;49.374;8.452;2022-12-18T20:55:05;101736.03;;;5.68
13497;BMP180;6820;49.374;8.452;2022-12-18T20:59:08;101733.53;;;5.68
13497;BMP180;6820;49.374;8.452;2022-12-18T21:03:11;101745.66;;;5.63
13497;BMP180;6820;49.374;8.452;2022-12-18T21:07:13;101735.31;;;5.60
13497;BMP180;6820;49.374;8.452;2022-12-18T21:15:35;101752.06;;;5.68
13497;BMP180;6820;49.374;8.452;2022-12-18T21:19:37;101724.53;;;5.70
13497;BMP180;6820;49.374;8.452;2022-12-18T21:23:38;101741.25;;;5.69
13497;BMP180;6820;49.374;8.452;2022-12-18T21:27:40;101733.91;;;5.71
13497;BMP180;6820;49.374;8.452;2022-12-18T21:31:43;101722.59;;;5.67
13497;BMP180;6820;49.374;8.452;2022-12-18T21:35:45;101744.50;;;5.68
13497;BMP180;6820;49.374;8.452;2022-12-18T21:39:47;101731.81;;;5.75
13497;BMP180;6820;49.374;8.452;2022-12-18T21:43:52;101723.84;;;5.71
13497;BMP180;6820;49.374;8.452;2022-12-18T21:48:06;101731.38;;;5.71
13497;BMP180;6820;49.374;8.452;2022-12-18T21:52:07;101712.81;;;5.70
13497;BMP180;6820;49.374;8.452;2022-12-18T21:56:09;101734.44;;;5.68
13497;BMP180;6820;49.374;8.452;2022-12-18T22:00:12;101768.91;;;5.69
13497;BMP180;6820;49.374;8.452;2022-12-18T22:04:20;101751.22;;;5.76
13497;BMP180;6820;49.374;8.452;2022-12-18T22:08:22;101742.47;;;5.73
13497;BMP180;6820;49.374;8.452;2022-12-18T22:12:24;101766.72;;;5.72
13497;BMP180;6820;49.374;8.452;2022-12-18T22:16:46;101743.97;;;5.79
13497;BMP180;6820;49.374;8.452;2022-12-18T22:20:48;101725.22;;;5.84
13497;BMP180;6820;49.374;8.452;2022-12-18T22:24:49;101722.13;;;5.86
13497;BMP180;6820;49.374;8.452;2022-12-18T22:28:51;101730.66;;;5.88
13497;BMP180;6820;49.374;8.452;2022-12-18T22:33:12;101727.28;;;5.88
13497;BMP180;6820;49.374;8.452;2022-12-18T22:37:13;101737.06;;;5.93
13497;BMP180;6820;49.374;8.452;2022-12-18T22:41:15;101744.31;;;5.99
13497;BMP180;6820;49.374;8.452;2022-12-18T22:45:21;101746.72;;;5.97
13497;BMP180;6820;49.374;8.452;2022-12-18T22:49:24;101738.41;;;5.98
13497;BMP180;6820;49.374;8.452;2022-12-18T22:53:26;101740.47;;;6.02
13497;BMP180;6820;49.374;8.452;2022-12-18T22:57:27;101748.78;;;6.01
13497;BMP180;6820;49.374;8.452;2022-12-18T23:01:30;101738.53;;;6.00
13497;BMP180;6820;49.374;8.452;2022-12-18T23:05:33;101739.00;;;5.96
13497;BMP180;6820;49.374;8.452;2022-12-18T23:09:34;101714.59;;;5.95
13497;BMP180;6820;49.374;8.452;2022-12-18T23:13:36;101737.22;;;5.95
13497;BMP180;6820;49.374;8.452;2022-12-18T23:17:38;101732.63;;;5.99
13497;BMP180;6820;49.374;8.452;2022-12-18T23:21:39;101735.78;;;6.05
13497;BMP180;6820;49.374;8.452;2022-12-18T23:25:41;101731.03;;;6.08
13497;BMP180;6820;49.374;8.452;2022-12-18T23:29:43;101719.34;;;6.08
13497;BMP180;6820;49.374;8.452;2022-12-18T23:33:48;101712.66;;;6.09
13497;BMP180;6820;49.374;8.452;2022-12-18T23:37:50;101705.88;;;6.08
13497;BMP180;6820;49.374;8.452;2022-12-18T23:42:00;101715.03;;;6.07
13497;BMP180;6820;49.374;8.452;2022-12-18T23:46:09;101714.31;;;6.08
13497;BMP180;6820;49.374;8.452;2022-12-18T23:50:10;101700.84;;;6.08
13497;BMP180;6820;49.374;8.452;2022-12-18T23:54:12;101702.44;;;6.07
13497;BMP180;6820;49.374;8.452;2022-12-18T23:58:16;101686.31;;;6.06
